sensor_id;sensor_type;location;lat;lon;timestamp;P1;durP1;ratioP1;P2;durP2;ratioP2
53618;SDS011;68717;53.040;18.488;2023-06-26T00:00:06;10.25;;;5.50;;
53618;SDS011;68717;53.040;18.488;2023-06-26T00:00:21;10.45;;;5.68;;
53618;SDS011;68717;53.040;18.488;2023-06-26T00:00:54;12.45;;;5.70;;
53618;SDS011;68717;53.040;18.488;2023-06-26T00:01:28;12.30;;;5.95;;
53618;SDS011;68717;53.040;18.488;2023-06-26T00:01:42;11.85;;;6.03;;
53618;SDS011;68717;53.040;18.488;2023-06-26T00:01:55;12.82;;;5.88;;
53618;SDS011;68717;53.040;18.488;2023-06-26T00:02:07;11.85;;;5.63;;
53618;SDS011;68717;53.040;18.488;2023-06-26T00:02:20;11.85;;;5.75;;
53618;SDS011;68717;53.040;18.488;2023-06-26T00:02:34;12.38;;;5.85;;
53618;SDS011;68717;53.040;18.488;2023-06-26T00:02:46;11.07;;;5.80;;
53618;SDS011;68717;53.040;18.488;2023-06-26T00:02:59;10.52;;;5.72;;
53618;SDS011;68717;53.040;18.488;2023-06-26T00:03:12;9.57;;;5.50;;
53618;SDS011;68717;53.040;18.488;2023-06-26T00:03:27;10.05;;;5.30;;
53618;SDS011;68717;53.040;18.488;2023-06-26T00:03:41;10.82;;;5.40;;
53618;SDS011;68717;53.040;18.488;2023-06-26T00:03:54;11.60;;;5.32;;
53618;SDS011;68717;53.040;18.488;2023-06-26T00:04:07;10.48;;;5.20;;
53618;SDS011;68717;53.040;18.488;2023-06-26T00:04:26;10.27;;;5.10;;
53618;SDS011;68717;53.040;18.488;2023-06-26T00:04:41;10.82;;;5.50;;
53618;SDS011;68717;53.040;18.488;2023-06-26T00:04:54;12.52;;;5.90;;
53618;SDS011;68717;53.040;18.488;2023-06-26T00:05:07;11.82;;;5.53;;
53618;SDS011;68717;53.040;18.488;2023-06-26T00:05:20;11.27;;;5.50;;
53618;SDS011;68717;53.040;18.488;2023-06-26T00:05:34;12.85;;;5.68;;
53618;SDS011;68717;53.040;18.488;2023-06-26T00:05:47;11.98;;;5.53;;
53618;SDS011;68717;53.040;18.488;2023-06-26T00:06:00;10.70;;;5.30;;
53618;SDS011;68717;53.040;18.488;2023-06-26T00:06:13;10.30;;;5.57;;
53618;SDS011;68717;53.040;18.488;2023-06-26T00:06:26;10.77;;;5.78;;
53618;SDS011;68717;53.040;18.488;2023-06-26T00:06:39;12.00;;;5.78;;
53618;SDS011;68717;53.040;18.488;2023-06-26T00:06:53;11.25;;;5.63;;
53618;SDS011;68717;53.040;18.488;2023-06-26T00:07:06;9.65;;;5.50;;
53618;SDS011;68717;53.040;18.488;2023-06-26T00:07:19;10.77;;;5.70;;
53618;SDS011;68717;53.040;18.488;2023-06-26T00:07:32;11.00;;;5.70;;
53618;SDS011;68717;53.040;18.488;2023-06-26T00:07:47;10.10;;;5.55;;
53618;SDS011;68717;53.040;18.488;2023-06-26T00:07:59;10.10;;;5.47;;
53618;SDS011;68717;53.040;18.488;2023-06-26T00:08:12;9.73;;;5.40;;
53618;SDS011;68717;53.040;18.488;2023-06-26T00:08:26;10.02;;;5.47;;
53618;SDS011;68717;53.040;18.488;2023-06-26T00:08:39;10.82;;;5.50;;
53618;SDS011;68717;53.040;18.488;2023-06-26T00:08:52;11.90;;;5.55;;
53618;SDS011;68717;53.040;18.488;2023-06-26T00:09:06;10.85;;;5.45;;
53618;SDS011;68717;53.040;18.488;2023-06-26T00:09:18;10.38;;;5.30;;
53618;SDS011;68717;53.040;18.488;2023-06-26T00:09:31;12.23;;;5.28;;
53618;SDS011;68717;53.040;18.488;2023-06-26T00:09:45;12.05;;;5.40;;
53618;SDS011;68717;53.040;18.488;2023-06-26T00:09:58;10.90;;;5.80;;
53618;SDS011;68717;53.040;18.488;2023-06-26T00:10:11;11.50;;;5.82;;
53618;SDS011;68717;53.040;18.488;2023-06-26T00:10:24;12.48;;;6.03;;
53618;SDS011;68717;53.040;18.488;2023-06-26T00:10:36;13.18;;;6.05;;
53618;SDS011;68717;53.040;18.488;2023-06-26T00:10:50;11.25;;;5.68;;
53618;SDS011;68717;53.040;18.488;2023-06-26T00:11:03;10.88;;;5.38;;
53618;SDS011;68717;53.040;18.488;2023-06-26T00:11:16;11.60;;;5.63;;
53618;SDS011;68717;53.040;18.488;2023-06-26T00:11:29;10.95;;;5.70;;
53618;SDS011;68717;53.040;18.488;2023-06-26T00:11:45;12.13;;;5.70;;
53618;SDS011;68717;53.040;18.488;2023-06-26T00:11:58;12.32;;;5.65;;
53618;SDS011;68717;53.040;18.488;2023-06-26T00:12:11;13.07;;;5.32;;
53618;SDS011;68717;53.040;18.488;2023-06-26T00:12:24;12.27;;;5.38;;
53618;SDS011;68717;53.040;18.488;2023-06-26T00:12:36;11.75;;;5.47;;
53618;SDS011;68717;53.040;18.488;2023-06-26T00:12:49;11.38;;;5.85;;
53618;SDS011;68717;53.040;18.488;2023-06-26T00:13:03;11.25;;;5.90;;
53618;SDS011;68717;53.040;18.488;2023-06-26T00:13:15;11.32;;;5.90;;
53618;SDS011;68717;53.040;18.488;2023-06-26T00:13:28;10.98;;;5.80;;
53618;SDS011;68717;53.040;18.488;2023-06-26T00:13:41;11.05;;;5.35;;
53618;SDS011;68717;53.040;18.488;2023-06-26T00:13:54;11.38;;;5.38;;
53618;SDS011;68717;53.040;18.488;2023-06-26T00:14:06;11.80;;;5.60;;
53618;SDS011;68717;53.040;18.488;2023-06-26T00:14:19;11.20;;;5.65;;
53618;SDS011;68717;53.040;18.488;2023-06-26T00:14:33;11.95;;;5.95;;
53618;SDS011;68717;53.040;18.488;2023-06-26T00:14:46;11.02;;;5.85;;
53618;SDS011;68717;53.040;18.488;2023-06-26T00:14:59;11.90;;;5.80;;
53618;SDS011;68717;53.040;18.488;2023-06-26T00:15:12;13.60;;;5.93;;
53618;SDS011;68717;53.040;18.488;2023-06-26T00:15:26;13.95;;;6.00;;
53618;SDS011;68717;53.040;18.488;2023-06-26T00:15:43;13.43;;;6.22;;
53618;SDS011;68717;53.040;18.488;2023-06-26T00:15:56;13.07;;;6.20;;
53618;SDS011;68717;53.040;18.488;2023-06-26T00:16:10;12.77;;;6.10;;
53618;SDS011;68717;53.040;18.488;2023-06-26T00:16:22;14.20;;;6.05;;
53618;SDS011;68717;53.040;18.488;2023-06-26T00:16:35;11.88;;;5.90;;
53618;SDS011;68717;53.040;18.488;2023-06-26T00:16:48;10.52;;;5.65;;
53618;SDS011;68717;53.040;18.488;2023-06-26T00:17:01;11.55;;;5.70;;
53618;SDS011;68717;53.040;18.488;2023-06-26T00:17:14;12.00;;;5.88;;
53618;SDS011;68717;53.040;18.488;2023-06-26T00:17:27;12.27;;;5.80;;
53618;SDS011;68717;53.040;18.488;2023-06-26T00:17:41;11.88;;;5.97;;
53618;SDS011;68717;53.040;18.488;2023-06-26T00:17:54;10.50;;;5.82;;
53618;SDS011;68717;53.040;18.488;2023-06-26T00:18:06;11.73;;;5.72;;
53618;SDS011;68717;53.040;18.488;2023-06-26T00:18:19;13.35;;;5.80;;
53618;SDS011;68717;53.040;18.488;2023-06-26T00:18:32;13.18;;;5.78;;
53618;SDS011;68717;53.040;18.488;2023-06-26T00:18:44;10.90;;;5.70;;
53618;SDS011;68717;53.040;18.488;2023-06-26T00:18:58;10.20;;;5.68;;
53618;SDS011;68717;53.040;18.488;2023-06-26T00:19:11;10.73;;;5.88;;
53618;SDS011;68717;53.040;18.488;2023-06-26T00:19:24;10.63;;;5.95;;
53618;SDS011;68717;53.040;18.488;2023-06-26T00:19:37;12.32;;;5.95;;
53618;SDS011;68717;53.040;18.488;2023-06-26T00:19:50;12.85;;;6.00;;
53618;SDS011;68717;53.040;18.488;2023-06-26T00:20:03;10.75;;;6.00;;
53618;SDS011;68717;53.040;18.488;2023-06-26T00:20:17;11.30;;;6.10;;
53618;SDS011;68717;53.040;18.488;2023-06-26T00:20:31;13.63;;;6.30;;
53618;SDS011;68717;53.040;18.488;2023-06-26T00:20:46;13.90;;;6.10;;
53618;SDS011;68717;53.040;18.488;2023-06-26T00:20:59;13.60;;;5.80;;
53618;SDS011;68717;53.040;18.488;2023-06-26T00:21:12;12.35;;;5.60;;
53618;SDS011;68717;53.040;18.488;2023-06-26T00:21:24;12.07;;;5.55;;
53618;SDS011;68717;53.040;18.488;2023-06-26T00:21:37;11.57;;;5.80;;
53618;SDS011;68717;53.040;18.488;2023-06-26T00:21:51;11.30;;;5.78;;
53618;SDS011;68717;53.040;18.488;2023-06-26T00:22:04;11.90;;;6.15;;
53618;SDS011;68717;53.040;18.488;2023-06-26T00:22:17;11.55;;;6.22;;
53618;SDS011;68717;53.040;18.488;2023-06-26T00:22:29;12.45;;;6.20;;
53618;SDS011;68717;53.040;18.488;2023-06-26T00:22:42;12.48;;;6.30;;
53618;SDS011;68717;53.040;18.488;2023-06-26T00:22:55;10.68;;;6.20;;
53618;SDS011;68717;53.040;18.488;2023-06-26T00:23:11;10.27;;;5.80;;
53618;SDS011;68717;53.040;18.488;2023-06-26T00:23:23;10.75;;;5.70;;
53618;SDS011;68717;53.040;18.488;2023-06-26T00:23:36;11.25;;;5.50;;
53618;SDS011;68717;53.040;18.488;2023-06-26T00:23:51;11.45;;;5.35;;
53618;SDS011;68717;53.040;18.488;2023-06-26T00:24:04;10.25;;;5.40;;
53618;SDS011;68717;53.040;18.488;2023-06-26T00:24:17;9.35;;;5.43;;
53618;SDS011;68717;53.040;18.488;2023-06-26T00:24:30;9.90;;;5.50;;
53618;SDS011;68717;53.040;18.488;2023-06-26T00:24:43;11.63;;;5.90;;
53618;SDS011;68717;53.040;18.488;2023-06-26T00:24:56;11.25;;;6.00;;
53618;SDS011;68717;53.040;18.488;2023-06-26T00:25:09;11.30;;;6.05;;
53618;SDS011;68717;53.040;18.488;2023-06-26T00:25:22;11.75;;;6.20;;
53618;SDS011;68717;53.040;18.488;2023-06-26T00:25:35;11.40;;;6.20;;
53618;SDS011;68717;53.040;18.488;2023-06-26T00:25:48;11.77;;;6.00;;
53618;SDS011;68717;53.040;18.488;2023-06-26T00:26:00;11.65;;;6.07;;
53618;SDS011;68717;53.040;18.488;2023-06-26T00:26:13;10.57;;;5.97;;
53618;SDS011;68717;53.040;18.488;2023-06-26T00:26:27;10.52;;;5.80;;
53618;SDS011;68717;53.040;18.488;2023-06-26T00:26:40;10.90;;;5.75;;
53618;SDS011;68717;53.040;18.488;2023-06-26T00:26:53;10.65;;;5.78;;
53618;SDS011;68717;53.040;18.488;2023-06-26T00:27:06;12.43;;;5.82;;
53618;SDS011;68717;53.040;18.488;2023-06-26T00:27:20;12.18;;;5.88;;
53618;SDS011;68717;53.040;18.488;2023-06-26T00:27:32;10.30;;;5.55;;
53618;SDS011;68717;53.040;18.488;2023-06-26T00:27:45;10.52;;;5.45;;
53618;SDS011;68717;53.040;18.488;2023-06-26T00:27:59;11.43;;;5.60;;
53618;SDS011;68717;53.040;18.488;2023-06-26T00:28:12;12.43;;;5.82;;
53618;SDS011;68717;53.040;18.488;2023-06-26T00:28:24;11.40;;;5.88;;
53618;SDS011;68717;53.040;18.488;2023-06-26T00:28:37;10.48;;;5.70;;
53618;SDS011;68717;53.040;18.488;2023-06-26T00:28:50;11.15;;;5.70;;
53618;SDS011;68717;53.040;18.488;2023-06-26T00:29:02;11.15;;;5.75;;
53618;SDS011;68717;53.040;18.488;2023-06-26T00:29:17;10.45;;;5.70;;
53618;SDS011;68717;53.040;18.488;2023-06-26T00:29:29;11.73;;;5.85;;
53618;SDS011;68717;53.040;18.488;2023-06-26T00:29:42;11.27;;;6.10;;
53618;SDS011;68717;53.040;18.488;2023-06-26T00:29:55;11.65;;;6.10;;
53618;SDS011;68717;53.040;18.488;2023-06-26T00:30:08;12.00;;;5.95;;
53618;SDS011;68717;53.040;18.488;2023-06-26T00:30:23;11.80;;;5.97;;
53618;SDS011;68717;53.040;18.488;2023-06-26T00:30:37;12.10;;;5.90;;
53618;SDS011;68717;53.040;18.488;2023-06-26T00:30:50;11.65;;;5.88;;
53618;SDS011;68717;53.040;18.488;2023-06-26T00:31:02;10.55;;;5.80;;
53618;SDS011;68717;53.040;18.488;2023-06-26T00:31:15;10.20;;;5.75;;
53618;SDS011;68717;53.040;18.488;2023-06-26T00:31:28;10.30;;;5.65;;
53618;SDS011;68717;53.040;18.488;2023-06-26T00:31:42;11.10;;;5.55;;
53618;SDS011;68717;53.040;18.488;2023-06-26T00:31:55;10.27;;;5.38;;
53618;SDS011;68717;53.040;18.488;2023-06-26T00:32:07;10.63;;;5.53;;
53618;SDS011;68717;53.040;18.488;2023-06-26T00:32:20;11.15;;;5.75;;
53618;SDS011;68717;53.040;18.488;2023-06-26T00:32:33;11.45;;;6.03;;
53618;SDS011;68717;53.040;18.488;2023-06-26T00:32:45;12.60;;;5.95;;
53618;SDS011;68717;53.040;18.488;2023-06-26T00:32:59;13.07;;;6.05;;
53618;SDS011;68717;53.040;18.488;2023-06-26T00:33:12;11.68;;;6.07;;
53618;SDS011;68717;53.040;18.488;2023-06-26T00:33:24;10.93;;;6.22;;
53618;SDS011;68717;53.040;18.488;2023-06-26T00:33:37;10.65;;;5.90;;
53618;SDS011;68717;53.040;18.488;2023-06-26T00:33:50;10.02;;;5.60;;
53618;SDS011;68717;53.040;18.488;2023-06-26T00:34:03;11.10;;;5.75;;
53618;SDS011;68717;53.040;18.488;2023-06-26T00:34:16;11.40;;;5.78;;
53618;SDS011;68717;53.040;18.488;2023-06-26T00:34:29;11.57;;;5.95;;
53618;SDS011;68717;53.040;18.488;2023-06-26T00:34:42;11.30;;;5.90;;
53618;SDS011;68717;53.040;18.488;2023-06-26T00:34:55;10.75;;;5.78;;
53618;SDS011;68717;53.040;18.488;2023-06-26T00:35:08;12.48;;;6.03;;
53618;SDS011;68717;53.040;18.488;2023-06-26T00:35:20;12.48;;;6.07;;
53618;SDS011;68717;53.040;18.488;2023-06-26T00:35:33;12.02;;;6.22;;
53618;SDS011;68717;53.040;18.488;2023-06-26T00:35:47;13.35;;;6.25;;
53618;SDS011;68717;53.040;18.488;2023-06-26T00:36:00;12.20;;;5.72;;
53618;SDS011;68717;53.040;18.488;2023-06-26T00:36:13;10.90;;;5.43;;
53618;SDS011;68717;53.040;18.488;2023-06-26T00:36:26;11.90;;;5.68;;
53618;SDS011;68717;53.040;18.488;2023-06-26T00:36:39;13.13;;;6.22;;
53618;SDS011;68717;53.040;18.488;2023-06-26T00:36:55;12.65;;;6.60;;
53618;SDS011;68717;53.040;18.488;2023-06-26T00:37:08;12.55;;;6.18;;
53618;SDS011;68717;53.040;18.488;2023-06-26T00:37:20;12.30;;;6.03;;
53618;SDS011;68717;53.040;18.488;2023-06-26T00:37:35;12.00;;;5.88;;
53618;SDS011;68717;53.040;18.488;2023-06-26T00:37:47;11.93;;;5.75;;
53618;SDS011;68717;53.040;18.488;2023-06-26T00:38:00;12.00;;;5.88;;
53618;SDS011;68717;53.040;18.488;2023-06-26T00:38:13;11.40;;;6.00;;
53618;SDS011;68717;53.040;18.488;2023-06-26T00:38:26;10.65;;;5.90;;
53618;SDS011;68717;53.040;18.488;2023-06-26T00:38:38;11.00;;;6.03;;
53618;SDS011;68717;53.040;18.488;2023-06-26T00:38:51;12.45;;;6.03;;
53618;SDS011;68717;53.040;18.488;2023-06-26T00:39:05;13.27;;;5.93;;
53618;SDS011;68717;53.040;18.488;2023-06-26T00:39:17;11.63;;;5.70;;
53618;SDS011;68717;53.040;18.488;2023-06-26T00:39:30;10.63;;;5.80;;
53618;SDS011;68717;53.040;18.488;2023-06-26T00:39:43;10.93;;;6.07;;
53618;SDS011;68717;53.040;18.488;2023-06-26T00:39:56;10.80;;;6.10;;
53618;SDS011;68717;53.040;18.488;2023-06-26T00:40:09;11.20;;;6.25;;
53618;SDS011;68717;53.040;18.488;2023-06-26T00:40:23;12.52;;;6.30;;
53618;SDS011;68717;53.040;18.488;2023-06-26T00:40:36;12.77;;;6.05;;
53618;SDS011;68717;53.040;18.488;2023-06-26T00:40:49;12.05;;;6.00;;
53618;SDS011;68717;53.040;18.488;2023-06-26T00:41:03;11.10;;;5.93;;
53618;SDS011;68717;53.040;18.488;2023-06-26T00:41:17;11.00;;;5.90;;
53618;SDS011;68717;53.040;18.488;2023-06-26T00:41:30;11.57;;;5.88;;
53618;SDS011;68717;53.040;18.488;2023-06-26T00:41:44;10.85;;;5.70;;
53618;SDS011;68717;53.040;18.488;2023-06-26T00:41:56;10.88;;;5.60;;
53618;SDS011;68717;53.040;18.488;2023-06-26T00:42:09;10.93;;;5.75;;
53618;SDS011;68717;53.040;18.488;2023-06-26T00:42:22;10.65;;;5.78;;
53618;SDS011;68717;53.040;18.488;2023-06-26T00:42:34;11.55;;;5.95;;
53618;SDS011;68717;53.040;18.488;2023-06-26T00:42:47;12.18;;;6.03;;
53618;SDS011;68717;53.040;18.488;2023-06-26T00:43:01;12.25;;;6.15;;
53618;SDS011;68717;53.040;18.488;2023-06-26T00:43:14;10.68;;;5.85;;
53618;SDS011;68717;53.040;18.488;2023-06-26T00:43:27;11.18;;;5.90;;
53618;SDS011;68717;53.040;18.488;2023-06-26T00:43:39;11.75;;;6.00;;
53618;SDS011;68717;53.040;18.488;2023-06-26T00:43:52;11.23;;;5.82;;
53618;SDS011;68717;53.040;18.488;2023-06-26T00:44:05;10.70;;;5.97;;
53618;SDS011;68717;53.040;18.488;2023-06-26T00:44:18;10.93;;;5.90;;
53618;SDS011;68717;53.040;18.488;2023-06-26T00:44:32;11.65;;;6.10;;
53618;SDS011;68717;53.040;18.488;2023-06-26T00:44:45;12.98;;;6.20;;
53618;SDS011;68717;53.040;18.488;2023-06-26T00:44:58;12.65;;;5.85;;
53618;SDS011;68717;53.040;18.488;2023-06-26T00:45:11;12.90;;;5.90;;
53618;SDS011;68717;53.040;18.488;2023-06-26T00:45:24;11.40;;;5.88;;
53618;SDS011;68717;53.040;18.488;2023-06-26T00:45:54;10.05;;;5.70;;
53618;SDS011;68717;53.040;18.488;2023-06-26T00:46:08;11.18;;;5.72;;
53618;SDS011;68717;53.040;18.488;2023-06-26T00:46:22;11.18;;;5.80;;
53618;SDS011;68717;53.040;18.488;2023-06-26T00:46:36;10.15;;;5.90;;
53618;SDS011;68717;53.040;18.488;2023-06-26T00:46:49;10.10;;;5.95;;
53618;SDS011;68717;53.040;18.488;2023-06-26T00:47:02;9.95;;;5.93;;
53618;SDS011;68717;53.040;18.488;2023-06-26T00:47:15;10.77;;;5.82;;
53618;SDS011;68717;53.040;18.488;2023-06-26T00:47:29;11.02;;;6.00;;
53618;SDS011;68717;53.040;18.488;2023-06-26T00:47:43;10.82;;;5.90;;
53618;SDS011;68717;53.040;18.488;2023-06-26T00:47:56;10.70;;;5.80;;
53618;SDS011;68717;53.040;18.488;2023-06-26T00:48:09;10.55;;;5.68;;
53618;SDS011;68717;53.040;18.488;2023-06-26T00:48:24;10.73;;;5.97;;
53618;SDS011;68717;53.040;18.488;2023-06-26T00:48:37;11.13;;;5.95;;
53618;SDS011;68717;53.040;18.488;2023-06-26T00:48:51;10.18;;;5.55;;
53618;SDS011;68717;53.040;18.488;2023-06-26T00:49:06;10.55;;;5.38;;
53618;SDS011;68717;53.040;18.488;2023-06-26T00:49:18;10.77;;;5.57;;
53618;SDS011;68717;53.040;18.488;2023-06-26T00:49:32;9.35;;;5.50;;
53618;SDS011;68717;53.040;18.488;2023-06-26T00:49:44;9.32;;;5.30;;
53618;SDS011;68717;53.040;18.488;2023-06-26T00:49:57;10.93;;;5.60;;
53618;SDS011;68717;53.040;18.488;2023-06-26T00:50:10;11.40;;;5.75;;
53618;SDS011;68717;53.040;18.488;2023-06-26T00:50:25;10.23;;;5.60;;
53618;SDS011;68717;53.040;18.488;2023-06-26T00:50:38;10.38;;;5.63;;
53618;SDS011;68717;53.040;18.488;2023-06-26T00:50:52;11.07;;;5.60;;
53618;SDS011;68717;53.040;18.488;2023-06-26T00:51:05;11.43;;;5.78;;
53618;SDS011;68717;53.040;18.488;2023-06-26T00:51:18;12.25;;;6.07;;
53618;SDS011;68717;53.040;18.488;2023-06-26T00:51:31;11.93;;;6.10;;
53618;SDS011;68717;53.040;18.488;2023-06-26T00:51:44;11.40;;;5.75;;
53618;SDS011;68717;53.040;18.488;2023-06-26T00:51:56;11.45;;;5.80;;
53618;SDS011;68717;53.040;18.488;2023-06-26T00:52:10;10.70;;;5.60;;
53618;SDS011;68717;53.040;18.488;2023-06-26T00:52:24;10.23;;;5.57;;
53618;SDS011;68717;53.040;18.488;2023-06-26T00:52:36;10.27;;;5.57;;
53618;SDS011;68717;53.040;18.488;2023-06-26T00:52:50;10.70;;;5.57;;
53618;SDS011;68717;53.040;18.488;2023-06-26T00:53:02;11.32;;;5.72;;
53618;SDS011;68717;53.040;18.488;2023-06-26T00:53:15;10.88;;;5.78;;
53618;SDS011;68717;53.040;18.488;2023-06-26T00:53:29;11.25;;;5.75;;
53618;SDS011;68717;53.040;18.488;2023-06-26T00:53:43;11.13;;;5.78;;
53618;SDS011;68717;53.040;18.488;2023-06-26T00:53:56;11.18;;;5.70;;
53618;SDS011;68717;53.040;18.488;2023-06-26T00:54:09;10.95;;;5.78;;
53618;SDS011;68717;53.040;18.488;2023-06-26T00:54:22;10.43;;;5.68;;
53618;SDS011;68717;53.040;18.488;2023-06-26T00:54:36;10.27;;;5.50;;
53618;SDS011;68717;53.040;18.488;2023-06-26T00:54:49;11.18;;;5.72;;
53618;SDS011;68717;53.040;18.488;2023-06-26T00:55:03;10.55;;;5.55;;
53618;SDS011;68717;53.040;18.488;2023-06-26T00:55:16;10.88;;;5.45;;
53618;SDS011;68717;53.040;18.488;2023-06-26T00:55:29;10.75;;;5.53;;
53618;SDS011;68717;53.040;18.488;2023-06-26T00:55:42;11.35;;;5.43;;
53618;SDS011;68717;53.040;18.488;2023-06-26T00:55:55;10.23;;;5.50;;
53618;SDS011;68717;53.040;18.488;2023-06-26T00:56:08;9.98;;;5.53;;
53618;SDS011;68717;53.040;18.488;2023-06-26T00:56:23;9.82;;;5.75;;
53618;SDS011;68717;53.040;18.488;2023-06-26T00:56:36;10.73;;;5.80;;
53618;SDS011;68717;53.040;18.488;2023-06-26T00:56:49;11.05;;;5.80;;
53618;SDS011;68717;53.040;18.488;2023-06-26T00:57:02;10.30;;;5.80;;
53618;SDS011;68717;53.040;18.488;2023-06-26T00:57:15;9.93;;;5.65;;
53618;SDS011;68717;53.040;18.488;2023-06-26T00:57:27;10.10;;;5.60;;
53618;SDS011;68717;53.040;18.488;2023-06-26T00:57:42;10.75;;;5.38;;
53618;SDS011;68717;53.040;18.488;2023-06-26T00:57:57;10.55;;;5.20;;
53618;SDS011;68717;53.040;18.488;2023-06-26T00:58:10;9.82;;;5.55;;
53618;SDS011;68717;53.040;18.488;2023-06-26T00:58:23;10.65;;;5.68;;
53618;SDS011;68717;53.040;18.488;2023-06-26T00:58:37;11.00;;;5.78;;
53618;SDS011;68717;53.040;18.488;2023-06-26T00:58:50;10.02;;;5.38;;
53618;SDS011;68717;53.040;18.488;2023-06-26T00:59:02;9.73;;;5.45;;
53618;SDS011;68717;53.040;18.488;2023-06-26T00:59:15;10.50;;;5.60;;
53618;SDS011;68717;53.040;18.488;2023-06-26T00:59:29;10.25;;;5.55;;
53618;SDS011;68717;53.040;18.488;2023-06-26T00:59:41;9.90;;;5.45;;
53618;SDS011;68717;53.040;18.488;2023-06-26T00:59:54;10.13;;;5.60;;
53618;SDS011;68717;53.040;18.488;2023-06-26T01:00:07;10.82;;;5.68;;
53618;SDS011;68717;53.040;18.488;2023-06-26T01:00:22;10.52;;;5.35;;
53618;SDS011;68717;53.040;18.488;2023-06-26T01:00:35;10.25;;;5.38;;
53618;SDS011;68717;53.040;18.488;2023-06-26T01:00:49;10.93;;;5.38;;
53618;SDS011;68717;53.040;18.488;2023-06-26T01:01:04;10.77;;;5.43;;
53618;SDS011;68717;53.040;18.488;2023-06-26T01:01:21;11.48;;;5.55;;
53618;SDS011;68717;53.040;18.488;2023-06-26T01:01:33;11.35;;;5.30;;
53618;SDS011;68717;53.040;18.488;2023-06-26T01:01:46;11.60;;;5.30;;
53618;SDS011;68717;53.040;18.488;2023-06-26T01:02:00;11.80;;;5.38;;
53618;SDS011;68717;53.040;18.488;2023-06-26T01:02:14;11.18;;;5.28;;
53618;SDS011;68717;53.040;18.488;2023-06-26T01:02:29;11.35;;;5.43;;
53618;SDS011;68717;53.040;18.488;2023-06-26T01:02:46;12.55;;;5.85;;
53618;SDS011;68717;53.040;18.488;2023-06-26T01:02:59;12.48;;;5.90;;
53618;SDS011;68717;53.040;18.488;2023-06-26T01:03:12;11.40;;;5.63;;
53618;SDS011;68717;53.040;18.488;2023-06-26T01:03:25;11.30;;;5.63;;
53618;SDS011;68717;53.040;18.488;2023-06-26T01:03:39;11.88;;;5.75;;
53618;SDS011;68717;53.040;18.488;2023-06-26T01:03:52;11.90;;;5.68;;
53618;SDS011;68717;53.040;18.488;2023-06-26T01:04:06;10.30;;;5.60;;
53618;SDS011;68717;53.040;18.488;2023-06-26T01:04:19;10.80;;;6.10;;
53618;SDS011;68717;53.040;18.488;2023-06-26T01:04:31;11.00;;;6.13;;
53618;SDS011;68717;53.040;18.488;2023-06-26T01:04:44;10.25;;;5.65;;
53618;SDS011;68717;53.040;18.488;2023-06-26T01:04:59;10.25;;;5.45;;
53618;SDS011;68717;53.040;18.488;2023-06-26T01:05:15;12.15;;;5.88;;
53618;SDS011;68717;53.040;18.488;2023-06-26T01:05:32;11.40;;;5.80;;
53618;SDS011;68717;53.040;18.488;2023-06-26T01:05:45;12.13;;;5.60;;
53618;SDS011;68717;53.040;18.488;2023-06-26T01:06:01;11.40;;;5.25;;
53618;SDS011;68717;53.040;18.488;2023-06-26T01:06:14;10.50;;;5.40;;
53618;SDS011;68717;53.040;18.488;2023-06-26T01:06:28;11.15;;;5.63;;
53618;SDS011;68717;53.040;18.488;2023-06-26T01:06:44;9.77;;;5.30;;
53618;SDS011;68717;53.040;18.488;2023-06-26T01:07:01;9.18;;;5.50;;
53618;SDS011;68717;53.040;18.488;2023-06-26T01:07:14;9.57;;;5.75;;
53618;SDS011;68717;53.040;18.488;2023-06-26T01:07:31;9.65;;;5.72;;
53618;SDS011;68717;53.040;18.488;2023-06-26T01:07:48;9.73;;;5.38;;
53618;SDS011;68717;53.040;18.488;2023-06-26T01:08:04;10.13;;;5.30;;
53618;SDS011;68717;53.040;18.488;2023-06-26T01:08:18;10.20;;;5.43;;
53618;SDS011;68717;53.040;18.488;2023-06-26T01:08:31;10.07;;;5.55;;
53618;SDS011;68717;53.040;18.488;2023-06-26T01:08:44;10.88;;;5.88;;
53618;SDS011;68717;53.040;18.488;2023-06-26T01:08:58;10.85;;;5.60;;
53618;SDS011;68717;53.040;18.488;2023-06-26T01:09:12;10.90;;;5.40;;
53618;SDS011;68717;53.040;18.488;2023-06-26T01:09:24;11.23;;;5.35;;
53618;SDS011;68717;53.040;18.488;2023-06-26T01:09:39;11.65;;;5.50;;
53618;SDS011;68717;53.040;18.488;2023-06-26T01:09:52;10.75;;;5.70;;
53618;SDS011;68717;53.040;18.488;2023-06-26T01:10:06;12.32;;;6.10;;
53618;SDS011;68717;53.040;18.488;2023-06-26T01:10:19;12.57;;;6.15;;
53618;SDS011;68717;53.040;18.488;2023-06-26T01:10:32;10.63;;;5.68;;
53618;SDS011;68717;53.040;18.488;2023-06-26T01:10:45;9.65;;;5.50;;
53618;SDS011;68717;53.040;18.488;2023-06-26T01:10:59;9.52;;;5.60;;
53618;SDS011;68717;53.040;18.488;2023-06-26T01:11:13;10.70;;;5.60;;
53618;SDS011;68717;53.040;18.488;2023-06-26T01:11:26;12.15;;;5.72;;
53618;SDS011;68717;53.040;18.488;2023-06-26T01:11:43;11.65;;;5.78;;
53618;SDS011;68717;53.040;18.488;2023-06-26T01:11:55;11.35;;;5.72;;
53618;SDS011;68717;53.040;18.488;2023-06-26T01:12:08;11.52;;;5.70;;
53618;SDS011;68717;53.040;18.488;2023-06-26T01:12:21;11.35;;;5.63;;
53618;SDS011;68717;53.040;18.488;2023-06-26T01:12:35;11.23;;;5.63;;
53618;SDS011;68717;53.040;18.488;2023-06-26T01:12:50;11.57;;;5.63;;
53618;SDS011;68717;53.040;18.488;2023-06-26T01:13:03;10.88;;;5.55;;
53618;SDS011;68717;53.040;18.488;2023-06-26T01:13:17;10.18;;;5.60;;
53618;SDS011;68717;53.040;18.488;2023-06-26T01:13:29;10.35;;;5.70;;
53618;SDS011;68717;53.040;18.488;2023-06-26T01:13:43;10.68;;;5.78;;
53618;SDS011;68717;53.040;18.488;2023-06-26T01:13:57;10.48;;;5.60;;
53618;SDS011;68717;53.040;18.488;2023-06-26T01:14:13;10.57;;;5.70;;
53618;SDS011;68717;53.040;18.488;2023-06-26T01:14:27;10.73;;;5.75;;
53618;SDS011;68717;53.040;18.488;2023-06-26T01:14:39;10.68;;;5.40;;
53618;SDS011;68717;53.040;18.488;2023-06-26T01:14:52;11.80;;;5.60;;
53618;SDS011;68717;53.040;18.488;2023-06-26T01:15:05;12.30;;;5.93;;
53618;SDS011;68717;53.040;18.488;2023-06-26T01:15:20;11.30;;;5.90;;
53618;SDS011;68717;53.040;18.488;2023-06-26T01:15:33;10.95;;;6.07;;
53618;SDS011;68717;53.040;18.488;2023-06-26T01:15:46;10.32;;;6.18;;
53618;SDS011;68717;53.040;18.488;2023-06-26T01:15:59;10.23;;;5.78;;
53618;SDS011;68717;53.040;18.488;2023-06-26T01:16:14;11.70;;;5.32;;
53618;SDS011;68717;53.040;18.488;2023-06-26T01:16:31;13.18;;;5.57;;
53618;SDS011;68717;53.040;18.488;2023-06-26T01:16:44;11.23;;;5.55;;
53618;SDS011;68717;53.040;18.488;2023-06-26T01:16:59;10.68;;;5.80;;
53618;SDS011;68717;53.040;18.488;2023-06-26T01:17:13;11.05;;;6.03;;
53618;SDS011;68717;53.040;18.488;2023-06-26T01:17:27;11.00;;;5.78;;
53618;SDS011;68717;53.040;18.488;2023-06-26T01:17:43;12.05;;;5.93;;
53618;SDS011;68717;53.040;18.488;2023-06-26T01:17:59;12.20;;;6.03;;
53618;SDS011;68717;53.040;18.488;2023-06-26T01:18:15;11.00;;;5.63;;
53618;SDS011;68717;53.040;18.488;2023-06-26T01:18:28;10.48;;;5.50;;
53618;SDS011;68717;53.040;18.488;2023-06-26T01:18:43;9.90;;;5.35;;
53618;SDS011;68717;53.040;18.488;2023-06-26T01:18:57;9.35;;;5.32;;
53618;SDS011;68717;53.040;18.488;2023-06-26T01:19:19;9.70;;;5.55;;
53618;SDS011;68717;53.040;18.488;2023-06-26T01:19:38;10.80;;;5.60;;
53618;SDS011;68717;53.040;18.488;2023-06-26T01:19:51;10.82;;;5.55;;